createdAt,value
2023-01-05T00:01:54.928Z,125.00
2023-01-05T00:04:24.102Z,112.30
2023-01-05T00:06:52.535Z,115.68
2023-01-05T00:09:20.128Z,114.10
2023-01-05T00:12:05.962Z,132.43
2023-01-05T00:14:52.903Z,120.82
2023-01-05T00:17:43.123Z,121.63
2023-01-05T00:20:39.295Z,121.55
2023-01-05T00:23:07.836Z,128.82
2023-01-05T00:25:40.808Z,121.65
2023-01-05T00:28:08.699Z,119.55
2023-01-05T00:30:42.996Z,129.57
2023-01-05T00:33:17.818Z,125.05
2023-01-05T00:35:45.240Z,121.30
2023-01-05T00:38:12.752Z,123.55
2023-01-05T00:40:40.209Z,118.80
2023-01-05T00:43:07.634Z,119.40
2023-01-05T00:45:34.870Z,117.57
2023-01-05T00:48:02.118Z,116.50
2023-01-05T00:50:29.428Z,126.95
2023-01-05T00:52:56.601Z,119.68
2023-01-05T00:55:24.031Z,113.28
2023-01-05T00:57:51.618Z,112.47
2023-01-05T01:00:20.467Z,111.63
2023-01-05T01:02:50.988Z,104.13
2023-01-05T01:05:18.913Z,110.22
2023-01-05T01:07:47.353Z,106.40
2023-01-05T01:10:14.611Z,109.43
2023-01-05T01:12:44.728Z,111.60
2023-01-05T01:15:12.081Z,108.20
2023-01-05T01:17:39.455Z,100.90
2023-01-05T01:20:08.038Z,103.95
2023-01-05T01:22:35.277Z,103.35
2023-01-05T01:25:02.617Z,110.30
2023-01-05T01:27:33.456Z,100.88
2023-01-05T01:30:01.518Z,95.22
2023-01-05T01:32:28.699Z,97.15
2023-01-05T01:34:55.928Z,99.30
2023-01-05T01:37:23.219Z,101.18
2023-01-05T01:39:53.212Z,105.68
2023-01-05T01:42:22.640Z,109.57
2023-01-05T01:45:04.306Z,109.93
2023-01-05T01:48:14.832Z,117.90
2023-01-05T01:50:51.588Z,117.85
2023-01-05T01:53:30.351Z,133.07
2023-01-05T01:56:01.492Z,136.48
2023-01-05T01:58:32.722Z,133.52
2023-01-05T02:01:03.674Z,132.48
2023-01-05T02:03:32.117Z,129.77
2023-01-05T02:06:00.947Z,127.45
2023-01-05T02:08:34.292Z,128.10
2023-01-05T02:11:30.842Z,111.80
2023-01-05T02:17:25.874Z,93.15
2023-01-05T02:20:32.208Z,98.18
2023-01-05T02:23:52.038Z,96.70
2023-01-05T02:27:19.269Z,99.03
2023-01-05T02:30:28.651Z,96.22
2023-01-05T02:33:21.084Z,99.00
2023-01-05T02:36:22.189Z,93.97
2023-01-05T02:39:12.303Z,100.28
2023-01-05T02:42:07.821Z,102.30
2023-01-05T02:44:35.909Z,103.85
2023-01-05T02:47:28.222Z,102.72
2023-01-05T02:50:24.572Z,101.57
2023-01-05T02:53:14.551Z,103.03
2023-01-05T02:55:48.940Z,103.25
2023-01-05T02:58:34.450Z,101.30
2023-01-05T03:01:11.924Z,97.15
2023-01-05T03:04:30.894Z,93.50
2023-01-05T03:07:09.547Z,100.70
2023-01-05T03:09:40.002Z,98.85
2023-01-05T03:12:53.586Z,96.82
2023-01-05T03:15:30.604Z,90.85
2023-01-05T03:18:05.088Z,94.03
2023-01-05T03:20:37.835Z,92.10
2023-01-05T03:23:28.424Z,92.60
2023-01-05T03:26:15.057Z,87.47
2023-01-05T03:29:19.513Z,93.68
2023-01-05T03:32:16.434Z,90.35
2023-01-05T03:35:20.865Z,89.22
2023-01-05T03:38:17.631Z,95.03
2023-01-05T03:40:47.238Z,86.57
2023-01-05T03:43:14.925Z,87.82
2023-01-05T03:45:52.756Z,87.53
2023-01-05T03:48:26.151Z,85.15
2023-01-05T03:50:53.484Z,90.35
2023-01-05T03:53:22.583Z,91.97
2023-01-05T03:55:50.774Z,87.65
2023-01-05T03:58:18.419Z,89.18
2023-01-05T04:00:48.884Z,92.82
2023-01-05T04:03:19.218Z,90.00
2023-01-05T04:05:46.926Z,85.53
2023-01-05T04:08:15.219Z,84.90
2023-01-05T04:10:42.685Z,88.03
2023-01-05T04:13:10.023Z,84.78
2023-01-05T04:15:40.341Z,82.18
2023-01-05T04:18:09.633Z,80.53
2023-01-05T04:20:36.959Z,83.55
2023-01-05T04:23:04.269Z,80.13
2023-01-05T04:25:34.750Z,77.30
2023-01-05T04:28:11.880Z,80.40
2023-01-05T04:30:39.708Z,80.30
2023-01-05T04:33:06.903Z,81.13
2023-01-05T04:35:34.762Z,78.10
2023-01-05T04:38:02.756Z,84.95
2023-01-05T04:40:30.799Z,81.65
2023-01-05T04:42:58.124Z,74.95
2023-01-05T04:45:26.753Z,76.07
2023-01-05T04:47:54.206Z,69.63
2023-01-05T04:50:22.948Z,76.72
2023-01-05T04:52:50.689Z,82.22
2023-01-05T04:55:21.192Z,76.03
2023-01-05T04:57:48.423Z,78.15
2023-01-05T05:00:18.788Z,67.13
2023-01-05T05:02:48.670Z,70.93
2023-01-05T05:05:16.833Z,68.32
2023-01-05T05:07:44.362Z,59.10
2023-01-05T05:10:17.853Z,64.35
2023-01-05T05:12:45.351Z,63.55
2023-01-05T05:15:14.037Z,63.33
2023-01-05T05:17:46.013Z,57.75
2023-01-05T05:20:15.476Z,58.88
2023-01-05T05:22:43.531Z,55.15
2023-01-05T05:25:13.728Z,56.22
2023-01-05T05:27:44.125Z,56.28
2023-01-05T05:30:11.975Z,53.55
2023-01-05T05:32:43.927Z,51.17
2023-01-05T05:35:11.316Z,50.13
2023-01-05T05:37:38.497Z,54.67
2023-01-05T05:40:06.828Z,54.15
2023-01-05T05:42:33.985Z,48.90
2023-01-05T05:45:01.488Z,49.92
2023-01-05T05:47:28.750Z,47.03
2023-01-05T05:49:56.047Z,54.13
2023-01-05T05:52:23.269Z,52.95
2023-01-05T05:54:50.442Z,60.85
2023-01-05T05:57:17.593Z,51.05
2023-01-05T05:59:44.781Z,51.55
2023-01-05T06:02:12.016Z,59.28
2023-01-05T06:04:39.291Z,55.47
2023-01-05T06:07:06.406Z,55.05
2023-01-05T06:09:33.597Z,54.78
2023-01-05T06:12:00.952Z,55.28
2023-01-05T06:14:28.229Z,52.60
2023-01-05T06:16:55.453Z,54.13
2023-01-05T06:19:22.625Z,49.60
2023-01-05T06:21:49.758Z,52.83
2023-01-05T06:24:17.137Z,48.55
2023-01-05T06:26:45.602Z,45.08
2023-01-05T06:29:12.736Z,49.65
2023-01-05T06:31:40.118Z,49.65
2023-01-05T06:34:07.390Z,52.35
2023-01-05T06:36:34.606Z,49.20
2023-01-05T06:39:02.724Z,46.83
2023-01-05T06:41:30.760Z,41.83
2023-01-05T06:43:57.932Z,39.72
2023-01-05T06:46:25.188Z,39.10
2023-01-05T06:48:52.439Z,40.65
2023-01-05T06:51:19.679Z,45.35
2023-01-05T06:53:46.950Z,39.15
2023-01-05T06:56:14.237Z,36.42
2023-01-05T06:58:41.471Z,38.17
2023-01-05T07:01:08.797Z,35.00
2023-01-05T07:03:36.273Z,34.60
2023-01-05T07:06:04.527Z,34.65
2023-01-05T07:08:33.239Z,35.75
2023-01-05T07:11:00.369Z,39.08
2023-01-05T07:13:27.514Z,37.45
2023-01-05T07:15:54.757Z,32.95
2023-01-05T07:18:22.033Z,33.92
2023-01-05T07:20:49.289Z,33.13
2023-01-05T07:23:16.481Z,31.48
2023-01-05T07:25:43.705Z,30.58
2023-01-05T07:28:10.821Z,30.58
2023-01-05T07:30:38.008Z,27.70
2023-01-05T07:33:05.315Z,26.85
2023-01-05T07:35:33.127Z,27.55
2023-01-05T07:38:00.325Z,25.50
2023-01-05T07:40:28.476Z,25.90
2023-01-05T07:42:55.690Z,27.35
2023-01-05T07:45:23.286Z,27.38
2023-01-05T07:47:50.707Z,28.80
2023-01-05T07:50:18.038Z,28.55
2023-01-05T07:52:45.362Z,24.60
2023-01-05T07:55:12.506Z,26.25
2023-01-05T07:57:39.808Z,25.58
2023-01-05T08:00:08.271Z,29.10
2023-01-05T08:02:42.394Z,25.15
2023-01-05T08:05:10.464Z,24.35
2023-01-05T08:07:38.029Z,26.38
2023-01-05T08:10:25.073Z,25.17
2023-01-05T08:13:11.114Z,24.67
2023-01-05T08:15:39.280Z,23.38
2023-01-05T08:18:06.631Z,19.95
2023-01-05T08:20:33.868Z,21.55
2023-01-05T08:23:01.228Z,21.70
2023-01-05T08:25:28.469Z,21.75
2023-01-05T08:27:55.713Z,29.33
2023-01-05T08:30:23.018Z,25.65
2023-01-05T08:32:50.166Z,20.88
2023-01-05T08:35:17.476Z,21.92
2023-01-05T08:37:45.795Z,20.23
2023-01-05T08:40:13.039Z,23.75
2023-01-05T08:42:40.731Z,21.52
2023-01-05T08:45:08.951Z,21.30
2023-01-05T08:47:36.148Z,20.40
2023-01-05T08:50:03.808Z,21.25
2023-01-05T08:52:31.319Z,17.85
2023-01-05T08:54:58.556Z,20.67
2023-01-05T08:57:25.698Z,17.80
2023-01-05T08:59:52.929Z,21.90
2023-01-05T09:02:25.508Z,16.48
2023-01-05T09:04:53.703Z,18.83
2023-01-05T09:07:22.265Z,17.70
2023-01-05T09:09:49.482Z,18.58
2023-01-05T09:12:17.081Z,20.27
2023-01-05T09:14:44.427Z,22.58
2023-01-05T09:17:11.720Z,20.42
2023-01-05T09:19:39.006Z,19.65
2023-01-05T09:22:06.502Z,18.42
2023-01-05T09:24:33.928Z,18.07
2023-01-05T09:27:01.171Z,16.98
2023-01-05T09:29:28.303Z,17.48
2023-01-05T09:31:55.646Z,21.98
2023-01-05T09:34:22.949Z,18.67
2023-01-05T09:36:50.274Z,17.98
2023-01-05T09:39:17.467Z,19.45
2023-01-05T09:41:54.259Z,19.45
2023-01-05T09:44:40.956Z,20.35
2023-01-05T09:47:32.911Z,17.92
2023-01-05T09:50:00.704Z,21.48
2023-01-05T09:52:30.471Z,29.05
2023-01-05T09:55:14.643Z,21.25
2023-01-05T09:57:43.582Z,20.65
2023-01-05T10:00:16.120Z,22.80
2023-01-05T10:02:57.214Z,21.33
2023-01-05T10:05:26.615Z,21.73
2023-01-05T10:08:15.911Z,18.00
2023-01-05T10:11:24.348Z,13.40
2023-01-05T10:14:11.077Z,18.90
2023-01-05T10:16:44.091Z,15.75
2023-01-05T10:19:17.492Z,15.95
2023-01-05T10:22:06.542Z,17.95
2023-01-05T10:24:42.417Z,17.50
2023-01-05T10:27:56.483Z,16.75
2023-01-05T10:30:57.592Z,20.90
2023-01-05T10:33:40.058Z,13.35
2023-01-05T10:36:58.000Z,13.27
2023-01-05T10:40:58.667Z,15.45
2023-01-05T10:43:51.716Z,14.05
2023-01-05T10:46:42.657Z,14.73
2023-01-05T10:49:09.300Z,19.48
2023-01-05T10:51:37.121Z,22.45
2023-01-05T10:54:05.703Z,22.05
2023-01-05T10:56:33.105Z,19.63
2023-01-05T10:59:11.046Z,19.55
2023-01-05T11:01:43.801Z,23.25
2023-01-05T11:04:34.257Z,24.27
2023-01-05T11:07:07.335Z,12.75
2023-01-05T11:09:41.467Z,10.98
2023-01-05T11:12:22.964Z,12.13
2023-01-05T11:14:58.687Z,12.98
2023-01-05T11:17:29.435Z,12.43
2023-01-05T11:19:58.025Z,12.52
2023-01-05T11:22:39.943Z,13.88
2023-01-05T11:25:33.063Z,15.98
2023-01-05T11:28:16.963Z,12.90
2023-01-05T11:31:04.503Z,11.77
2023-01-05T11:33:36.309Z,13.50
2023-01-05T11:36:05.663Z,13.65
2023-01-05T11:38:33.820Z,13.55
2023-01-05T11:41:01.606Z,15.95
2023-01-05T11:43:32.556Z,17.13
2023-01-05T11:46:05.132Z,15.57
2023-01-05T11:48:35.819Z,17.50
2023-01-05T11:51:03.872Z,12.80
2023-01-05T11:53:34.185Z,13.98
2023-01-05T11:56:37.832Z,13.32
2023-01-05T11:59:29.767Z,14.05
2023-01-05T12:02:54.988Z,12.48
2023-01-05T12:05:55.115Z,14.95
2023-01-05T12:08:44.167Z,13.73
2023-01-05T12:11:24.363Z,15.32
2023-01-05T12:14:50.014Z,15.32
2023-01-05T12:17:36.912Z,13.05
2023-01-05T12:20:37.000Z,13.38
2023-01-05T12:23:46.602Z,15.00
2023-01-05T12:26:58.127Z,12.80
2023-01-05T12:32:26.386Z,13.05
2023-01-05T12:36:58.750Z,12.73
2023-01-05T12:39:58.531Z,11.85
2023-01-05T12:42:44.091Z,10.45
2023-01-05T12:45:31.572Z,12.15
2023-01-05T12:48:51.537Z,10.70
2023-01-05T12:51:42.898Z,12.93
2023-01-05T12:54:54.755Z,11.40
2023-01-05T12:57:41.359Z,11.10
2023-01-05T13:00:15.910Z,11.60
2023-01-05T13:02:53.666Z,11.10
2023-01-05T13:05:46.161Z,12.00
2023-01-05T13:08:25.107Z,16.77
2023-01-05T13:11:18.262Z,15.32
2023-01-05T13:13:56.968Z,12.57
2023-01-05T13:16:40.027Z,11.68
2023-01-05T13:19:19.962Z,13.43
2023-01-05T13:21:48.428Z,13.10
2023-01-05T13:24:34.188Z,13.07
2023-01-05T13:27:02.737Z,12.90
2023-01-05T13:29:40.854Z,13.15
2023-01-05T13:33:02.083Z,13.63
2023-01-05T13:36:07.165Z,13.10
2023-01-05T13:38:53.378Z,12.02
2023-01-05T13:42:01.756Z,13.70
2023-01-05T13:45:36.006Z,11.75
2023-01-05T13:49:07.165Z,14.95
2023-01-05T13:51:51.680Z,12.60
2023-01-05T13:54:49.571Z,15.03
2023-01-05T13:57:30.922Z,14.13
2023-01-05T14:00:10.224Z,13.07
2023-01-05T14:02:46.798Z,10.45
2023-01-05T14:05:30.890Z,12.60
2023-01-05T14:08:03.425Z,13.18
2023-01-05T14:10:33.987Z,16.27
2023-01-05T14:13:03.485Z,17.25
2023-01-05T14:15:43.084Z,12.43
2023-01-05T14:18:50.999Z,14.80
2023-01-05T14:21:50.460Z,11.85
2023-01-05T14:27:19.109Z,13.63
2023-01-05T14:29:46.305Z,15.05
2023-01-05T14:32:38.376Z,12.65
2023-01-05T14:35:11.740Z,12.80
2023-01-05T14:38:04.379Z,13.73
2023-01-05T14:40:45.354Z,11.85
2023-01-05T14:43:35.390Z,14.25
2023-01-05T14:46:15.285Z,16.15
2023-01-05T14:49:11.425Z,15.63
2023-01-05T14:51:39.715Z,12.10
2023-01-05T14:54:07.018Z,15.93
2023-01-05T14:56:38.077Z,12.70
2023-01-05T14:59:26.415Z,11.48
2023-01-05T15:02:02.508Z,14.38
2023-01-05T15:04:41.744Z,13.38
2023-01-05T15:08:02.252Z,14.98
2023-01-05T15:11:26.094Z,12.30
2023-01-05T15:14:47.330Z,11.40
2023-01-05T15:17:48.091Z,12.48
2023-01-05T15:20:50.465Z,14.57
2023-01-05T15:24:05.311Z,16.83
2023-01-05T15:27:03.022Z,19.88
2023-01-05T15:30:17.905Z,13.95
2023-01-05T15:32:51.413Z,22.35
2023-01-05T15:35:36.956Z,11.95
2023-01-05T15:38:25.807Z,17.25
2023-01-05T15:41:10.305Z,12.98
2023-01-05T15:43:41.589Z,12.15
2023-01-05T15:46:10.823Z,16.58
2023-01-05T15:48:46.400Z,19.70
2023-01-05T15:51:30.614Z,12.35
2023-01-05T15:54:05.406Z,14.13
2023-01-05T15:56:40.826Z,16.57
2023-01-05T15:59:28.595Z,15.13
2023-01-05T16:01:56.475Z,14.38
2023-01-05T16:04:24.466Z,15.45
2023-01-05T16:07:04.067Z,52.85
2023-01-05T16:09:41.081Z,14.68
2023-01-05T16:12:23.895Z,15.45
2023-01-05T16:15:01.346Z,12.20
2023-01-05T16:17:33.298Z,15.23
2023-01-05T16:20:17.200Z,15.25
2023-01-05T16:23:11.452Z,16.48
2023-01-05T16:25:55.887Z,15.38
2023-01-05T16:28:25.093Z,13.38
2023-01-05T16:30:54.747Z,18.42
2023-01-05T16:33:35.709Z,14.75
2023-01-05T16:36:22.592Z,14.45
2023-01-05T16:38:49.831Z,16.38
2023-01-05T16:41:26.837Z,17.08
2023-01-05T16:44:02.001Z,16.08
2023-01-05T16:46:41.376Z,16.60
2023-01-05T16:49:37.337Z,17.65
2023-01-05T16:52:09.696Z,20.70
2023-01-05T16:54:40.627Z,17.13
2023-01-05T16:57:35.717Z,15.50
2023-01-05T17:00:04.875Z,18.23
2023-01-05T17:02:48.785Z,17.85
2023-01-05T17:05:22.801Z,17.98
2023-01-05T17:08:21.510Z,17.58
2023-01-05T17:10:49.968Z,17.95
2023-01-05T17:13:21.818Z,14.65
2023-01-05T17:15:52.875Z,18.52
2023-01-05T17:18:28.771Z,21.02
2023-01-05T17:20:58.902Z,18.77
2023-01-05T17:23:34.863Z,18.73
2023-01-05T17:26:10.227Z,19.02
2023-01-05T17:28:38.681Z,22.52
2023-01-05T17:31:06.458Z,18.52
2023-01-05T17:33:33.812Z,20.15
2023-01-05T17:36:03.563Z,18.20
2023-01-05T17:38:30.752Z,19.67
2023-01-05T17:40:58.576Z,17.85
2023-01-05T17:43:26.391Z,20.58
2023-01-05T17:45:53.791Z,20.60
2023-01-05T17:48:21.113Z,19.67
2023-01-05T17:50:51.014Z,29.58
2023-01-05T17:53:20.179Z,35.58
2023-01-05T17:55:47.531Z,43.03
2023-01-05T17:58:15.669Z,42.72
2023-01-05T18:03:17.108Z,46.03
2023-01-05T18:05:44.936Z,50.15
2023-01-05T18:08:12.655Z,54.25
2023-01-05T18:13:10.895Z,56.83
2023-01-05T18:15:44.292Z,61.72
2023-01-05T18:18:13.397Z,57.47
2023-01-05T18:20:42.696Z,59.28
2023-01-05T18:23:10.880Z,60.03
2023-01-05T18:25:39.692Z,59.83
2023-01-05T18:28:07.046Z,62.37
2023-01-05T18:30:34.751Z,60.47
2023-01-05T18:33:02.673Z,59.30
2023-01-05T18:35:29.992Z,52.97
2023-01-05T18:38:00.865Z,52.97
2023-01-05T18:40:29.422Z,44.08
2023-01-05T18:42:56.745Z,48.65
2023-01-05T18:45:38.406Z,46.22
2023-01-05T18:48:06.749Z,43.15
2023-01-05T18:50:33.919Z,48.72
2023-01-05T18:53:01.151Z,44.92
2023-01-05T18:55:28.552Z,53.28
2023-01-05T18:57:55.794Z,56.80
2023-01-05T19:00:23.051Z,74.25
2023-01-05T19:02:50.279Z,59.22
2023-01-05T19:05:17.585Z,101.13
2023-01-05T19:07:44.900Z,101.13
2023-01-05T19:10:12.241Z,138.15
2023-01-05T19:12:39.488Z,106.13
2023-01-05T19:15:07.647Z,94.10
2023-01-05T19:17:34.990Z,78.88
2023-01-05T19:20:02.406Z,91.63
2023-01-05T19:22:30.521Z,70.03
2023-01-05T19:24:58.766Z,148.70
2023-01-05T19:27:27.963Z,89.38
2023-01-05T19:30:02.794Z,102.45
2023-01-05T19:32:32.896Z,80.03
2023-01-05T19:35:00.177Z,101.20
2023-01-05T19:37:27.323Z,88.15
2023-01-05T19:39:54.774Z,76.10
2023-01-05T19:42:22.044Z,113.60
2023-01-05T19:44:49.370Z,97.75
2023-01-05T19:47:16.743Z,125.10
2023-01-05T19:49:44.005Z,106.05
2023-01-05T19:52:11.958Z,139.45
2023-01-05T19:54:39.501Z,137.68
2023-01-05T19:57:06.862Z,125.30
2023-01-05T19:59:35.104Z,126.25
2023-01-05T20:02:05.255Z,123.25
2023-01-05T20:04:33.121Z,109.10
2023-01-05T20:07:03.959Z,119.60
2023-01-05T20:09:31.826Z,117.90
2023-01-05T20:12:09.333Z,115.90
2023-01-05T20:14:41.333Z,101.90
2023-01-05T20:17:11.486Z,106.60
2023-01-05T20:19:39.713Z,132.80
2023-01-05T20:22:13.601Z,143.55
2023-01-05T20:24:42.513Z,164.77
2023-01-05T20:27:14.978Z,134.85
2023-01-05T20:29:42.362Z,173.55
2023-01-05T20:32:21.792Z,194.45
2023-01-05T20:34:59.100Z,159.75
2023-01-05T20:37:29.670Z,157.88
2023-01-05T20:40:00.633Z,163.63
2023-01-05T20:42:29.327Z,152.10
2023-01-05T20:44:56.757Z,155.80
2023-01-05T20:47:23.958Z,179.10
2023-01-05T20:49:51.536Z,169.18
2023-01-05T20:52:18.897Z,184.30
2023-01-05T20:54:46.546Z,161.15
2023-01-05T20:57:13.792Z,211.27
2023-01-05T20:59:41.195Z,162.65
2023-01-05T21:02:22.399Z,174.85
2023-01-05T21:04:52.169Z,167.90
2023-01-05T21:07:20.352Z,167.10
2023-01-05T21:09:48.864Z,155.35
2023-01-05T21:12:16.314Z,153.52
2023-01-05T21:14:43.549Z,191.05
2023-01-05T21:17:10.819Z,178.70
2023-01-05T21:19:38.177Z,151.63
2023-01-05T21:22:05.399Z,196.80
2023-01-05T21:24:32.626Z,163.57
2023-01-05T21:26:59.775Z,175.82
2023-01-05T21:29:27.090Z,169.60
2023-01-05T21:31:56.256Z,153.63
2023-01-05T21:34:25.645Z,193.95
2023-01-05T21:36:53.313Z,168.57
2023-01-05T21:39:25.950Z,174.65
2023-01-05T21:42:12.783Z,151.32
2023-01-05T21:44:40.353Z,154.95
2023-01-05T21:47:08.183Z,167.88
2023-01-05T21:49:36.337Z,166.10
2023-01-05T21:52:23.987Z,159.07
2023-01-05T21:55:10.050Z,152.18
2023-01-05T21:57:37.281Z,161.43
2023-01-05T22:00:06.769Z,157.65
2023-01-05T22:02:34.391Z,159.77
2023-01-05T22:05:01.587Z,160.10
2023-01-05T22:07:29.005Z,157.05
2023-01-05T22:09:56.260Z,148.10
2023-01-05T22:12:23.439Z,155.73
2023-01-05T22:14:50.673Z,169.57
2023-01-05T22:17:17.911Z,164.95
2023-01-05T22:19:45.104Z,144.48
2023-01-05T22:22:13.657Z,152.70
2023-01-05T22:24:40.853Z,165.43
2023-01-05T22:27:08.330Z,157.40
2023-01-05T22:29:35.509Z,148.55
2023-01-05T22:32:03.288Z,149.85
2023-01-05T22:34:31.474Z,150.32
2023-01-05T22:36:59.373Z,154.77
2023-01-05T22:39:26.549Z,158.52
2023-01-05T22:41:53.921Z,129.23
2023-01-05T22:44:21.180Z,128.82
2023-01-05T22:46:48.325Z,135.27
2023-01-05T22:49:16.440Z,140.38
2023-01-05T22:51:47.245Z,114.15
2023-01-05T22:54:14.697Z,122.65
2023-01-05T22:56:42.090Z,109.97
2023-01-05T22:59:09.307Z,114.90
2023-01-05T23:01:43.230Z,118.88
2023-01-05T23:04:12.201Z,124.03
2023-01-05T23:06:40.364Z,130.75
2023-01-05T23:09:12.935Z,119.90
2023-01-05T23:11:41.927Z,121.28
2023-01-05T23:14:12.107Z,119.20
2023-01-05T23:16:39.454Z,121.88
2023-01-05T23:19:08.495Z,112.57
2023-01-05T23:21:36.539Z,118.70
2023-01-05T23:24:05.184Z,108.63
2023-01-05T23:26:32.491Z,100.97
2023-01-05T23:28:59.795Z,100.35
2023-01-05T23:31:28.496Z,113.38
2023-01-05T23:33:57.269Z,103.03
2023-01-05T23:36:25.966Z,105.70
2023-01-05T23:38:53.134Z,104.82
2023-01-05T23:41:21.482Z,105.88
2023-01-05T23:43:48.802Z,107.88
2023-01-05T23:46:20.347Z,106.80
2023-01-05T23:48:49.871Z,111.32
2023-01-05T23:51:18.171Z,119.85
2023-01-05T23:53:52.209Z,122.43
2023-01-05T23:56:28.522Z,124.78
2023-01-05T23:59:08.830Z,138.27
